createdAt,value
2019-03-29T00:00:41.155Z,66.90
2019-03-29T00:03:12.720Z,67.26
2019-03-29T00:05:44.796Z,68.11
2019-03-29T00:08:16.436Z,68.32
2019-03-29T00:10:47.952Z,68.84
2019-03-29T00:13:19.577Z,68.90
2019-03-29T00:15:51.100Z,69.16
2019-03-29T00:18:22.689Z,69.16
2019-03-29T00:20:54.273Z,70.10
2019-03-29T00:23:25.855Z,70.23
2019-03-29T00:25:57.492Z,70.59
2019-03-29T00:28:29.821Z,71.01
2019-03-29T00:31:01.332Z,71.04
2019-03-29T00:33:32.935Z,71.15
2019-03-29T00:36:04.512Z,71.54
2019-03-29T00:38:36.017Z,71.04
2019-03-29T00:41:07.605Z,71.15
2019-03-29T00:43:39.159Z,71.72
2019-03-29T00:46:12.010Z,71.73
2019-03-29T00:48:43.639Z,72.35
2019-03-29T00:51:15.227Z,72.20
2019-03-29T00:53:46.761Z,71.87
2019-03-29T00:56:18.281Z,72.45
2019-03-29T00:58:49.792Z,72.78
2019-03-29T01:01:21.292Z,72.51
2019-03-29T01:03:52.984Z,72.25
2019-03-29T01:06:24.482Z,71.87
2019-03-29T01:08:56.018Z,71.94
2019-03-29T01:11:27.538Z,71.76
2019-03-29T01:14:00.120Z,71.68
2019-03-29T01:16:31.632Z,71.40
2019-03-29T01:19:03.341Z,70.91
2019-03-29T01:21:35.628Z,70.86
2019-03-29T01:24:07.180Z,70.46
2019-03-29T01:26:38.708Z,70.66
2019-03-29T01:29:10.219Z,70.80
2019-03-29T01:31:41.741Z,71.01
2019-03-29T01:34:13.253Z,70.77
2019-03-29T01:36:44.786Z,70.56
2019-03-29T01:39:16.989Z,70.40
2019-03-29T01:41:48.771Z,70.05
2019-03-29T01:44:20.274Z,69.62
2019-03-29T01:46:51.779Z,69.17
2019-03-29T01:49:23.300Z,68.93
2019-03-29T01:51:54.803Z,68.92
2019-03-29T01:54:26.387Z,68.93
2019-03-29T01:56:57.970Z,68.75
2019-03-29T01:59:29.627Z,68.72
2019-03-29T02:02:01.142Z,68.64
2019-03-29T02:04:32.720Z,68.70
2019-03-29T02:07:04.374Z,68.73
2019-03-29T02:09:35.892Z,68.40
2019-03-29T02:12:07.423Z,68.21
2019-03-29T02:14:38.984Z,67.95
2019-03-29T02:17:10.530Z,68.13
2019-03-29T02:19:42.029Z,68.30
2019-03-29T02:22:13.559Z,68.17
2019-03-29T02:24:45.041Z,68.57
2019-03-29T02:27:16.638Z,68.61
2019-03-29T02:29:48.142Z,68.35
2019-03-29T02:32:19.750Z,68.25
2019-03-29T02:34:52.311Z,67.98
2019-03-29T02:37:23.845Z,67.84
2019-03-29T02:39:55.349Z,67.80
2019-03-29T02:42:26.841Z,67.41
2019-03-29T02:44:58.375Z,67.14
2019-03-29T02:47:29.876Z,66.88
2019-03-29T02:50:01.383Z,66.70
2019-03-29T02:52:33.080Z,66.59
2019-03-29T02:55:07.080Z,66.49
2019-03-29T02:57:38.676Z,66.13
2019-03-29T03:00:11.088Z,65.88
2019-03-29T03:02:42.677Z,65.51
2019-03-29T03:05:14.193Z,65.32
2019-03-29T03:07:45.705Z,64.97
2019-03-29T03:10:17.206Z,64.75
2019-03-29T03:12:48.710Z,64.30
2019-03-29T03:15:20.232Z,64.02
2019-03-29T03:17:51.751Z,64.10
2019-03-29T03:20:23.258Z,63.93
2019-03-29T03:22:54.766Z,63.72
2019-03-29T03:25:26.411Z,63.80
2019-03-29T03:27:57.938Z,64.03
2019-03-29T03:30:29.478Z,64.03
2019-03-29T03:33:01.043Z,63.93
2019-03-29T03:35:32.601Z,63.85
2019-03-29T03:38:04.103Z,63.99
2019-03-29T03:40:35.721Z,64.25
2019-03-29T03:43:07.328Z,64.21
2019-03-29T03:45:38.835Z,63.97
2019-03-29T03:48:10.343Z,63.89
2019-03-29T03:50:42.665Z,63.69
2019-03-29T03:53:14.200Z,63.73
2019-03-29T03:55:45.720Z,63.95
2019-03-29T03:58:17.301Z,63.81
2019-03-29T04:00:54.658Z,63.52
2019-03-29T04:03:27.563Z,63.38
2019-03-29T04:05:59.142Z,63.03
2019-03-29T04:08:30.709Z,62.85
2019-03-29T04:11:02.350Z,62.84
2019-03-29T04:13:33.833Z,62.90
2019-03-29T04:16:05.442Z,62.63
2019-03-29T04:18:37.009Z,62.39
2019-03-29T04:21:08.591Z,62.30
2019-03-29T04:23:40.101Z,62.47
2019-03-29T04:26:11.618Z,62.12
2019-03-29T04:28:43.146Z,62.04
2019-03-29T04:31:14.651Z,61.90
2019-03-29T04:33:46.252Z,61.87
2019-03-29T04:36:18.820Z,61.55
2019-03-29T04:38:50.375Z,61.54
2019-03-29T04:41:21.886Z,61.48
2019-03-29T04:43:53.382Z,61.48
2019-03-29T04:46:24.887Z,61.22
2019-03-29T04:48:56.469Z,61.02
2019-03-29T04:51:27.977Z,60.82
2019-03-29T04:53:59.492Z,61.01
2019-03-29T04:56:31.021Z,60.99
2019-03-29T04:59:02.537Z,60.85
2019-03-29T05:01:34.058Z,60.58
2019-03-29T05:04:05.567Z,60.41
2019-03-29T05:06:37.152Z,60.31
2019-03-29T05:09:08.644Z,60.27
2019-03-29T05:11:40.164Z,60.18
2019-03-29T05:14:14.166Z,60.08
2019-03-29T05:16:45.780Z,60.14
2019-03-29T05:19:18.933Z,59.93
2019-03-29T05:21:50.691Z,60.08
2019-03-29T05:24:22.212Z,59.75
2019-03-29T05:26:53.733Z,59.77
2019-03-29T05:29:25.241Z,59.66
2019-03-29T05:31:56.741Z,59.34
2019-03-29T05:34:28.313Z,59.39
2019-03-29T05:36:59.877Z,59.33
2019-03-29T05:39:31.369Z,59.19
2019-03-29T05:42:02.960Z,59.03
2019-03-29T05:44:34.624Z,58.90
2019-03-29T05:47:06.195Z,58.72
2019-03-29T05:49:37.736Z,58.79
2019-03-29T05:52:09.308Z,58.71
2019-03-29T05:54:40.829Z,58.60
2019-03-29T05:57:12.339Z,58.81
2019-03-29T05:59:43.853Z,58.36
2019-03-29T06:02:15.402Z,57.80
2019-03-29T06:04:46.941Z,57.35
2019-03-29T06:07:18.434Z,58.09
2019-03-29T06:09:49.998Z,57.85
2019-03-29T06:12:21.585Z,57.80
2019-03-29T06:14:53.120Z,57.54
2019-03-29T06:17:24.631Z,57.30
2019-03-29T06:19:56.306Z,57.12
2019-03-29T06:22:27.795Z,57.12
2019-03-29T06:24:59.288Z,57.36
2019-03-29T06:27:30.812Z,57.45
2019-03-29T06:30:02.305Z,57.38
2019-03-29T06:32:33.892Z,57.33
2019-03-29T06:35:08.232Z,57.73
2019-03-29T06:37:39.825Z,58.07
2019-03-29T06:40:16.246Z,57.88
2019-03-29T06:42:47.893Z,57.79
2019-03-29T06:45:19.399Z,57.92
2019-03-29T06:47:50.892Z,58.43
2019-03-29T06:50:22.484Z,58.27
2019-03-29T06:52:54.015Z,58.31
2019-03-29T06:55:25.510Z,58.83
2019-03-29T06:57:57.020Z,59.00
2019-03-29T07:00:28.510Z,59.08
2019-03-29T07:03:00.114Z,59.61
2019-03-29T07:05:31.636Z,59.83
2019-03-29T07:08:03.232Z,59.81
2019-03-29T07:10:34.787Z,59.18
2019-03-29T07:13:06.391Z,59.27
2019-03-29T07:15:37.915Z,58.91
2019-03-29T07:18:09.398Z,59.15
2019-03-29T07:20:41.409Z,59.15
2019-03-29T07:23:12.892Z,58.57
2019-03-29T07:25:44.410Z,58.75
2019-03-29T07:28:15.922Z,58.69
2019-03-29T07:30:47.534Z,58.33
2019-03-29T07:33:19.973Z,58.21
2019-03-29T07:35:51.464Z,57.65
2019-03-29T07:38:23.045Z,57.40
2019-03-29T07:40:54.657Z,57.50
2019-03-29T07:43:27.261Z,57.36
2019-03-29T07:45:58.798Z,57.20
2019-03-29T07:48:30.297Z,58.48
2019-03-29T07:51:01.801Z,58.61
2019-03-29T07:53:33.315Z,59.15
2019-03-29T07:56:04.803Z,59.04
2019-03-29T07:58:36.301Z,58.95
2019-03-29T08:01:08.476Z,58.61
2019-03-29T08:03:40.307Z,58.66
2019-03-29T08:06:12.087Z,58.17
2019-03-29T08:08:43.810Z,58.54
2019-03-29T08:11:25.450Z,58.27
2019-03-29T08:13:48.602Z,58.06
2019-03-29T08:16:20.159Z,57.59
2019-03-29T08:18:51.791Z,56.95
2019-03-29T08:21:23.712Z,55.78
2019-03-29T08:23:55.297Z,56.47
2019-03-29T08:26:26.794Z,56.12
2019-03-29T08:28:58.443Z,55.67
2019-03-29T08:31:30.030Z,55.08
2019-03-29T08:34:01.554Z,54.66
2019-03-29T08:36:33.929Z,54.93
2019-03-29T08:39:10.164Z,54.47
2019-03-29T08:41:40.765Z,53.96
2019-03-29T08:44:12.338Z,53.78
2019-03-29T08:46:43.877Z,53.56
2019-03-29T08:49:17.019Z,53.73
2019-03-29T08:51:48.900Z,53.55
2019-03-29T08:54:20.527Z,53.39
2019-03-29T08:56:52.103Z,53.21
2019-03-29T08:59:23.692Z,52.70
2019-03-29T09:01:55.290Z,52.33
2019-03-29T09:04:26.800Z,52.20
2019-03-29T09:06:58.349Z,52.29
2019-03-29T09:09:29.874Z,52.88
2019-03-29T09:12:13.772Z,52.50
2019-03-29T09:14:35.016Z,52.77
2019-03-29T09:17:06.613Z,52.72
2019-03-29T09:19:38.205Z,52.84
2019-03-29T09:22:09.718Z,52.41
2019-03-29T09:24:41.238Z,52.10
2019-03-29T09:27:12.815Z,52.05
2019-03-29T09:29:44.348Z,51.60
2019-03-29T09:32:15.957Z,51.62
2019-03-29T09:34:47.438Z,51.25
2019-03-29T09:37:18.961Z,51.30
2019-03-29T09:39:50.572Z,51.14
2019-03-29T09:42:29.198Z,51.07
2019-03-29T09:44:55.312Z,50.53
2019-03-29T09:47:26.837Z,51.12
2019-03-29T09:49:58.489Z,50.89
2019-03-29T09:52:30.078Z,51.44
2019-03-29T09:55:03.344Z,50.97
2019-03-29T09:57:37.907Z,50.99
2019-03-29T10:00:19.265Z,50.93
2019-03-29T10:02:43.192Z,50.99
2019-03-29T10:05:14.720Z,51.08
2019-03-29T10:07:46.233Z,51.09
2019-03-29T10:10:17.757Z,50.98
2019-03-29T10:12:52.349Z,50.74
2019-03-29T10:15:24.025Z,50.53
2019-03-29T10:17:55.531Z,50.78
2019-03-29T10:20:27.050Z,50.78
2019-03-29T10:23:01.584Z,50.73
2019-03-29T10:25:34.252Z,50.48
2019-03-29T10:28:05.841Z,49.95
2019-03-29T10:30:40.710Z,50.12
2019-03-29T10:33:13.961Z,49.94
2019-03-29T10:35:51.902Z,49.77
2019-03-29T10:38:18.807Z,49.65
2019-03-29T10:40:53.002Z,50.15
2019-03-29T10:43:24.538Z,49.66
2019-03-29T10:45:57.043Z,49.12
2019-03-29T10:48:28.629Z,48.75
2019-03-29T10:51:01.782Z,48.62
2019-03-29T10:53:33.308Z,48.92
2019-03-29T10:56:04.901Z,49.19
2019-03-29T10:58:36.392Z,49.68
2019-03-29T11:01:07.921Z,49.87
2019-03-29T11:03:39.433Z,49.02
2019-03-29T11:06:11.037Z,49.13
2019-03-29T11:08:43.688Z,49.04
2019-03-29T11:11:15.374Z,49.50
2019-03-29T11:13:46.964Z,49.50
2019-03-29T11:16:18.483Z,49.17
2019-03-29T11:18:50.039Z,48.87
2019-03-29T11:21:21.664Z,49.30
2019-03-29T11:23:53.169Z,49.31
2019-03-29T11:26:24.770Z,49.21
2019-03-29T11:28:56.424Z,49.30
2019-03-29T11:31:30.884Z,49.51
2019-03-29T11:34:05.104Z,49.92
2019-03-29T11:36:36.671Z,49.82
2019-03-29T11:39:09.792Z,49.48
2019-03-29T11:41:41.326Z,49.11
2019-03-29T11:44:12.875Z,48.83
2019-03-29T11:46:44.631Z,48.58
2019-03-29T11:49:16.266Z,48.33
2019-03-29T11:51:47.775Z,47.84
2019-03-29T11:54:19.362Z,47.33
2019-03-29T11:56:51.960Z,47.78
2019-03-29T11:59:23.474Z,47.51
2019-03-29T12:01:55.085Z,47.78
2019-03-29T12:04:26.606Z,47.02
2019-03-29T12:06:58.123Z,47.15
2019-03-29T12:09:32.296Z,46.92
2019-03-29T12:12:03.819Z,46.97
2019-03-29T12:14:35.398Z,47.37
2019-03-29T12:17:06.906Z,47.35
2019-03-29T12:19:38.498Z,47.58
2019-03-29T12:22:10.011Z,47.31
2019-03-29T12:24:41.534Z,47.71
2019-03-29T12:27:16.242Z,47.38
2019-03-29T12:29:49.343Z,47.29
2019-03-29T12:32:20.879Z,47.01
2019-03-29T12:34:52.392Z,47.45
2019-03-29T12:37:23.952Z,47.46
2019-03-29T12:39:55.538Z,47.86
2019-03-29T12:42:27.456Z,47.62
2019-03-29T12:44:59.194Z,48.02
2019-03-29T12:47:33.519Z,47.92
2019-03-29T12:50:07.326Z,47.50
2019-03-29T12:52:42.809Z,47.33
2019-03-29T12:55:14.313Z,47.00
2019-03-29T12:57:47.497Z,46.93
2019-03-29T13:00:19.433Z,46.52
2019-03-29T13:02:50.969Z,47.06
2019-03-29T13:05:22.484Z,47.29
2019-03-29T13:07:53.995Z,47.19
2019-03-29T13:10:25.594Z,47.29
2019-03-29T13:13:00.411Z,47.83
2019-03-29T13:15:30.367Z,47.99
2019-03-29T13:18:01.949Z,47.71
2019-03-29T13:20:35.230Z,47.21
2019-03-29T13:23:06.760Z,47.48
2019-03-29T13:25:38.355Z,47.89
2019-03-29T13:28:11.897Z,48.16
2019-03-29T13:30:43.066Z,47.90
2019-03-29T13:33:14.638Z,47.62
2019-03-29T13:35:46.149Z,47.50
2019-03-29T13:38:20.470Z,47.73
2019-03-29T13:40:50.957Z,47.73
2019-03-29T13:43:22.477Z,47.42
2019-03-29T13:45:54.031Z,47.86
2019-03-29T13:48:25.628Z,48.52
2019-03-29T13:50:59.427Z,48.82
2019-03-29T13:53:31.010Z,48.88
2019-03-29T13:56:02.532Z,49.27
2019-03-29T13:58:34.096Z,49.27
2019-03-29T14:01:05.656Z,49.28
2019-03-29T14:03:37.172Z,49.05
2019-03-29T14:06:08.742Z,49.25
2019-03-29T14:08:41.339Z,48.64
2019-03-29T14:11:12.915Z,48.51
2019-03-29T14:13:44.569Z,48.38
2019-03-29T14:16:16.127Z,48.86
2019-03-29T14:18:47.627Z,48.99
2019-03-29T14:21:19.646Z,49.03
2019-03-29T14:23:51.237Z,49.19
2019-03-29T14:26:22.831Z,49.69
2019-03-29T14:28:54.350Z,49.73
2019-03-29T14:31:26.826Z,49.82
2019-03-29T14:33:59.394Z,49.68
2019-03-29T14:36:31.268Z,49.37
2019-03-29T14:39:02.842Z,49.42
2019-03-29T14:41:34.528Z,49.28
2019-03-29T14:44:06.042Z,49.27
2019-03-29T14:46:37.558Z,49.56
2019-03-29T14:49:09.068Z,49.68
2019-03-29T14:51:40.618Z,49.46
2019-03-29T14:54:12.106Z,49.05
2019-03-29T14:56:43.624Z,49.61
2019-03-29T14:59:15.113Z,49.14
2019-03-29T15:01:46.680Z,48.84
2019-03-29T15:04:19.248Z,48.75
2019-03-29T15:06:50.898Z,48.98
2019-03-29T15:09:22.419Z,49.57
2019-03-29T15:11:53.925Z,49.50
2019-03-29T15:14:25.439Z,49.70
2019-03-29T15:16:56.946Z,49.98
2019-03-29T15:19:28.523Z,50.13
2019-03-29T15:22:00.035Z,50.21
2019-03-29T15:24:31.626Z,50.43
2019-03-29T15:27:03.214Z,50.12
2019-03-29T15:29:34.807Z,50.16
2019-03-29T15:32:06.338Z,50.29
2019-03-29T15:34:37.822Z,50.53
2019-03-29T15:37:10.404Z,50.56
2019-03-29T15:39:42.059Z,51.05
2019-03-29T15:42:13.648Z,50.74
2019-03-29T15:44:45.153Z,51.72
2019-03-29T15:47:16.670Z,52.09
2019-03-29T15:49:55.759Z,51.95
2019-03-29T15:52:21.388Z,51.56
2019-03-29T15:54:52.965Z,51.59
2019-03-29T15:57:24.466Z,51.51
2019-03-29T15:59:55.970Z,51.50
2019-03-29T16:02:27.480Z,51.61
2019-03-29T16:04:59.146Z,51.23
2019-03-29T16:07:34.861Z,51.01
2019-03-29T16:10:06.221Z,51.04
2019-03-29T16:12:38.930Z,51.54
2019-03-29T16:15:10.524Z,51.57
2019-03-29T16:17:42.209Z,51.38
2019-03-29T16:20:13.793Z,51.51
2019-03-29T16:22:45.336Z,51.56
2019-03-29T16:25:17.000Z,51.74
2019-03-29T16:27:48.553Z,51.55
2019-03-29T16:30:20.115Z,51.62
2019-03-29T16:32:57.480Z,51.58
2019-03-29T16:35:34.733Z,51.71
2019-03-29T16:38:06.377Z,52.08
2019-03-29T16:40:39.336Z,52.18
2019-03-29T16:43:13.487Z,52.37
2019-03-29T16:45:48.309Z,52.33
2019-03-29T16:48:18.254Z,52.60
2019-03-29T16:51:07.737Z,52.75
2019-03-29T16:53:39.874Z,52.61
2019-03-29T16:56:15.301Z,52.66
2019-03-29T16:58:59.878Z,52.67
2019-03-29T17:01:31.912Z,52.94
2019-03-29T17:04:03.492Z,53.24
2019-03-29T17:06:38.029Z,53.13
2019-03-29T17:09:09.682Z,53.27
2019-03-29T17:11:41.253Z,53.15
2019-03-29T17:14:12.788Z,53.11
2019-03-29T17:16:44.539Z,53.34
2019-03-29T17:19:16.128Z,53.27
2019-03-29T17:21:47.627Z,53.10
2019-03-29T17:24:19.146Z,53.18
2019-03-29T17:26:50.857Z,53.22
2019-03-29T17:29:22.584Z,53.20
2019-03-29T17:31:54.169Z,53.24
2019-03-29T17:34:25.731Z,53.22
2019-03-29T17:36:57.370Z,53.39
2019-03-29T17:39:29.006Z,53.53
2019-03-29T17:42:05.201Z,53.74
2019-03-29T17:44:36.790Z,54.05
2019-03-29T17:47:08.412Z,54.33
2019-03-29T17:49:40.482Z,54.49
2019-03-29T17:52:12.200Z,54.53
2019-03-29T17:54:44.124Z,54.73
2019-03-29T17:57:15.848Z,54.83
2019-03-29T17:59:50.194Z,55.26
2019-03-29T18:02:23.862Z,55.20
2019-03-29T18:04:55.439Z,55.18
2019-03-29T18:07:26.932Z,55.14
2019-03-29T18:09:58.474Z,55.06
2019-03-29T18:12:30.037Z,55.24
2019-03-29T18:15:01.601Z,55.44
2019-03-29T18:17:34.372Z,55.62
2019-03-29T18:20:10.218Z,55.77
2019-03-29T18:22:41.771Z,56.03
2019-03-29T18:25:13.413Z,55.70
2019-03-29T18:27:44.926Z,55.65
2019-03-29T18:30:16.456Z,55.71
2019-03-29T18:32:48.050Z,55.73
2019-03-29T18:35:19.748Z,55.82
2019-03-29T18:37:51.354Z,55.87
2019-03-29T18:40:27.332Z,55.72
2019-03-29T18:42:58.834Z,55.67
2019-03-29T18:45:30.425Z,55.66
2019-03-29T18:48:01.952Z,55.72
2019-03-29T18:50:33.596Z,55.77
2019-03-29T18:53:05.284Z,55.43
2019-03-29T18:55:36.824Z,55.60
2019-03-29T18:58:08.390Z,55.63
2019-03-29T19:00:40.073Z,55.85
2019-03-29T19:03:12.307Z,56.00
2019-03-29T19:05:43.869Z,55.73
2019-03-29T19:08:15.469Z,55.73
2019-03-29T19:10:47.061Z,55.86
2019-03-29T19:13:18.636Z,56.07
2019-03-29T19:15:50.324Z,56.02
2019-03-29T19:18:21.920Z,56.04
2019-03-29T19:20:53.446Z,55.85
2019-03-29T19:23:24.954Z,55.99
2019-03-29T19:25:56.538Z,55.77
2019-03-29T19:28:28.049Z,55.69
2019-03-29T19:30:59.577Z,55.64
2019-03-29T19:33:31.092Z,55.27
2019-03-29T19:36:02.816Z,55.25
2019-03-29T19:38:34.328Z,54.93
2019-03-29T19:41:05.866Z,54.97
2019-03-29T19:43:37.384Z,54.92
2019-03-29T19:46:08.962Z,54.95
2019-03-29T19:48:40.542Z,55.06
2019-03-29T19:51:12.055Z,55.03
2019-03-29T19:53:43.607Z,54.97
2019-03-29T19:56:15.332Z,55.01
2019-03-29T19:58:46.824Z,54.90
2019-03-29T20:01:18.323Z,55.34
2019-03-29T20:03:49.851Z,55.02
2019-03-29T20:06:25.645Z,54.90
2019-03-29T20:08:55.887Z,54.82
2019-03-29T20:11:33.447Z,54.86
2019-03-29T20:14:04.936Z,55.00
2019-03-29T20:16:36.505Z,55.21
2019-03-29T20:19:08.064Z,55.30
2019-03-29T20:21:39.626Z,55.31
2019-03-29T20:24:12.017Z,55.28
2019-03-29T20:26:43.531Z,55.55
2019-03-29T20:29:15.059Z,55.42
2019-03-29T20:31:49.947Z,55.41
2019-03-29T20:34:20.043Z,55.51
2019-03-29T20:36:54.751Z,55.53
2019-03-29T20:39:26.293Z,55.53
2019-03-29T20:41:57.844Z,55.49
2019-03-29T20:44:29.360Z,55.66
2019-03-29T20:47:02.551Z,55.66
2019-03-29T20:49:34.752Z,55.52
2019-03-29T20:52:06.257Z,55.56
2019-03-29T20:54:37.911Z,55.70
2019-03-29T20:57:09.407Z,55.95
2019-03-29T20:59:41.063Z,55.75
2019-03-29T21:02:13.569Z,55.78
2019-03-29T21:04:45.217Z,55.91
2019-03-29T21:07:16.736Z,56.30
2019-03-29T21:09:48.336Z,56.38
2019-03-29T21:12:19.864Z,56.10
2019-03-29T21:14:53.068Z,56.13
2019-03-29T21:17:24.594Z,56.18
2019-03-29T21:19:56.110Z,56.19
2019-03-29T21:22:27.690Z,56.00
2019-03-29T21:24:59.281Z,56.20
2019-03-29T21:27:30.921Z,56.29
2019-03-29T21:30:02.422Z,56.25
2019-03-29T21:32:34.229Z,56.41
2019-03-29T21:35:08.389Z,56.43
2019-03-29T21:37:40.265Z,56.56
2019-03-29T21:40:11.920Z,56.61
2019-03-29T21:42:43.471Z,56.36
2019-03-29T21:45:27.997Z,56.42
2019-03-29T21:48:01.961Z,56.71
2019-03-29T21:50:22.675Z,56.65
2019-03-29T21:52:54.233Z,56.50
2019-03-29T21:55:25.796Z,56.52
2019-03-29T21:57:57.314Z,56.54
2019-03-29T22:00:28.832Z,56.51
2019-03-29T22:03:00.427Z,56.54
2019-03-29T22:05:31.983Z,56.57
2019-03-29T22:08:03.477Z,56.58
2019-03-29T22:10:35.069Z,56.77
2019-03-29T22:13:06.653Z,56.54
2019-03-29T22:15:38.268Z,56.63
2019-03-29T22:18:09.759Z,56.57
2019-03-29T22:20:41.274Z,56.77
2019-03-29T22:23:13.735Z,56.82
2019-03-29T22:25:45.321Z,56.76
2019-03-29T22:28:16.824Z,56.83
2019-03-29T22:30:48.400Z,56.79
2019-03-29T22:33:19.976Z,56.91
2019-03-29T22:35:51.496Z,56.81
2019-03-29T22:38:23.067Z,56.78
2019-03-29T22:40:54.637Z,56.85
2019-03-29T22:43:26.161Z,57.02
2019-03-29T22:45:57.751Z,57.11
2019-03-29T22:48:29.267Z,57.08
2019-03-29T22:51:00.796Z,57.31
2019-03-29T22:53:32.413Z,57.26
2019-03-29T22:56:04.998Z,57.39
2019-03-29T22:58:36.492Z,57.52
2019-03-29T23:01:08.183Z,57.52
2019-03-29T23:03:41.527Z,57.52
2019-03-29T23:06:13.128Z,57.45
2019-03-29T23:08:44.622Z,57.46
2019-03-29T23:11:16.149Z,57.54
2019-03-29T23:13:47.663Z,57.78
2019-03-29T23:16:19.252Z,57.72
2019-03-29T23:18:50.757Z,57.66
2019-03-29T23:21:22.273Z,57.58
2019-03-29T23:23:54.767Z,57.48
2019-03-29T23:26:26.291Z,57.72
2019-03-29T23:28:57.857Z,57.75
2019-03-29T23:31:29.446Z,57.72
2019-03-29T23:34:01.018Z,57.76
2019-03-29T23:36:32.597Z,57.66
2019-03-29T23:39:04.454Z,57.78
2019-03-29T23:41:36.637Z,58.00
2019-03-29T23:44:08.214Z,58.58
2019-03-29T23:46:39.703Z,58.73
2019-03-29T23:49:20.991Z,59.02
2019-03-29T23:51:44.499Z,59.33
2019-03-29T23:54:16.064Z,59.37
2019-03-29T23:56:47.635Z,59.14
2019-03-29T23:59:19.156Z,59.36
